Time;durP1;ratioP1;P1;durP2;ratioP2;P2;SDS_P1;SDS_P2;PMS_P1;PMS_P2;Temp;Humidity;BMP_temperature;BMP_pressure;BME280_temperature;BME280_humidity;BME280_pressure;Samples;Min_cycle;Max_cycle;Signal;HPM_P1;HPM_P2
2023/01/31 00:00:40;;;;;;;4.40;2.95;;;25.90;59.70;;;;;;4973956;28;20206;-53
2023/01/31 00:03:10;;;;;;;3.95;2.72;;;26.00;59.70;;;;;;4973973;28;20195;-54
2023/01/31 00:05:41;;;;;;;4.82;3.00;;;26.00;59.70;;;;;;4973601;28;20206;-54
2023/01/31 00:08:13;;;;;;;3.22;2.92;;;26.00;59.60;;;;;;4973208;28;20222;-53
2023/01/31 00:10:43;;;;;;;3.78;3.15;;;26.00;59.50;;;;;;4973026;28;20238;-54
2023/01/31 00:13:16;;;;;;;3.00;2.70;;;26.10;59.50;;;;;;4972509;28;20655;-55
2023/01/31 00:15:47;;;;;;;3.90;3.10;;;26.10;59.40;;;;;;4973652;28;20194;-53
2023/01/31 00:18:17;;;;;;;3.03;2.70;;;26.10;59.40;;;;;;4985637;28;20218;-54
2023/01/31 00:20:48;;;;;;;4.55;3.20;;;26.10;59.30;;;;;;4992274;28;20657;-53
2023/01/31 00:23:19;;;;;;;3.10;2.80;;;26.10;59.30;;;;;;4973380;28;20202;-52
2023/01/31 00:25:49;;;;;;;6.30;3.85;;;26.20;59.30;;;;;;4973817;28;20206;-51
2023/01/31 00:28:22;;;;;;;18.02;7.70;;;26.20;59.30;;;;;;4973650;28;20222;-50
2023/01/31 00:30:52;;;;;;;23.20;8.20;;;26.20;59.20;;;;;;4974319;28;20206;-51
2023/01/31 00:33:23;;;;;;;12.52;6.93;;;26.20;59.20;;;;;;4973801;28;20197;-52
2023/01/31 00:35:54;;;;;;;14.20;5.82;;;26.20;59.10;;;;;;4973963;28;20198;-51
2023/01/31 00:38:24;;;;;;;12.30;5.97;;;26.20;59.70;;;;;;4972431;28;20226;-53
2023/01/31 00:40:56;;;;;;;14.60;4.65;;;26.20;59.10;;;;;;4973493;28;20206;-54
2023/01/31 00:43:28;;;;;;;7.82;4.82;;;26.30;59.10;;;;;;4973036;28;20198;-53
2023/01/31 00:45:59;;;;;;;9.48;4.30;;;26.30;59.00;;;;;;4973343;28;20205;-53
2023/01/31 00:48:30;;;;;;;7.88;3.90;;;26.30;58.90;;;;;;4972993;28;20238;-51
2023/01/31 00:51:04;;;;;;;5.68;3.88;;;26.30;58.90;;;;;;4974123;28;20205;-55
2023/01/31 00:53:34;;;;;;;6.65;4.03;;;26.30;58.80;;;;;;4972584;28;20197;-53
2023/01/31 00:56:07;;;;;;;6.43;3.58;;;26.40;58.90;;;;;;4973417;28;20198;-52
2023/01/31 00:58:40;;;;;;;6.10;3.80;;;26.40;58.70;;;;;;4973508;28;20547;-54
2023/01/31 01:01:13;;;;;;;6.72;3.50;;;26.40;58.60;;;;;;4972946;28;20256;-51
2023/01/31 01:03:45;;;;;;;4.80;3.42;;;26.40;58.60;;;;;;4973562;28;20209;-52
2023/01/31 01:06:16;;;;;;;6.30;3.55;;;26.40;58.60;;;;;;4972958;28;20201;-52
2023/01/31 01:08:47;;;;;;;5.82;3.90;;;26.40;58.60;;;;;;4972598;28;20643;-54
2023/01/31 01:11:20;;;;;;;3.92;3.10;;;26.40;58.40;;;;;;4973709;28;20206;-55
2023/01/31 01:13:53;;;;;;;5.88;3.53;;;26.50;58.50;;;;;;4973695;28;20201;-52
2023/01/31 01:16:25;;;;;;;4.97;3.58;;;26.50;58.50;;;;;;4972965;28;20195;-53
2023/01/31 01:18:56;;;;;;;4.20;3.15;;;26.50;58.40;;;;;;4972818;28;20229;-48
2023/01/31 01:21:28;;;;;;;4.78;3.63;;;26.50;58.40;;;;;;4972865;28;20201;-53
2023/01/31 01:24:00;;;;;;;3.95;3.55;;;26.50;58.30;;;;;;4972495;28;20202;-53
2023/01/31 01:26:32;;;;;;;4.47;3.22;;;26.50;58.20;;;;;;4973409;28;20283;-53
2023/01/31 01:29:06;;;;;;;3.72;3.20;;;26.50;58.10;;;;;;4972300;28;20226;-54
2023/01/31 01:31:36;;;;;;;3.58;3.20;;;26.50;58.10;;;;;;4972110;28;20281;-53
2023/01/31 01:34:10;;;;;;;4.20;3.33;;;26.60;58.10;;;;;;4972386;28;20190;-53
2023/01/31 01:36:41;;;;;;;3.63;3.15;;;26.50;58.00;;;;;;4972550;28;20753;-52
2023/01/31 01:39:13;;;;;;;3.70;3.15;;;26.60;58.10;;;;;;4972053;28;20233;-53
2023/01/31 01:41:44;;;;;;;4.15;3.75;;;26.60;58.00;;;;;;4972266;28;20198;-49
2023/01/31 01:44:51;;;;;;;3.53;3.22;;;26.60;57.90;;;;;;4972774;28;20205;-53
2023/01/31 01:47:37;;;;;;;4.00;3.13;;;26.60;57.90;;;;;;4972333;28;20662;-53
2023/01/31 01:50:14;;;;;;;4.78;3.10;;;26.50;57.70;;;;;;4972434;28;20225;-52
2023/01/31 01:52:49;;;;;;;3.55;2.90;;;26.60;57.70;;;;;;4972807;28;20200;-54
2023/01/31 01:55:25;;;;;;;3.30;3.00;;;26.60;57.70;;;;;;4971245;28;20197;-54
2023/01/31 01:57:59;;;;;;;2.78;2.58;;;26.60;57.80;;;;;;4972335;28;20705;-54
2023/01/31 02:00:35;;;;;;;3.28;2.97;;;26.60;57.80;;;;;;4972440;28;20197;-52
2023/01/31 02:03:08;;;;;;;3.55;3.00;;;26.60;57.60;;;;;;4972066;28;20655;-51
2023/01/31 02:05:43;;;;;;;3.72;3.05;;;26.70;57.60;;;;;;4971576;28;20190;-51
2023/01/31 02:08:14;;;;;;;3.42;2.88;;;26.70;57.60;;;;;;4971438;28;20213;-52
2023/01/31 02:10:49;;;;;;;2.80;2.60;;;26.60;57.50;;;;;;4972279;28;20201;-51
2023/01/31 02:13:20;;;;;;;3.40;2.85;;;26.60;57.50;;;;;;4971073;28;20537;-54
2023/01/31 02:15:53;;;;;;;3.33;3.03;;;26.60;57.50;;;;;;4972066;28;20225;-52
2023/01/31 02:18:25;;;;;;;3.28;2.95;;;26.60;57.50;;;;;;4971892;28;20218;-51
2023/01/31 02:21:32;;;;;;;4.03;2.78;;;26.60;58.10;;;;;;4970844;28;20190;-53
2023/01/31 02:24:35;;;;;;;3.40;2.78;;;26.60;57.40;;;;;;4970872;28;20344;-54
2023/01/31 02:27:51;;;;;;;2.78;2.45;;;26.70;58.10;;;;;;4971849;28;20209;-51
2023/01/31 02:30:44;;;;;;;2.47;2.28;;;26.70;57.40;;;;;;4972893;28;20233;-53
2023/01/31 02:33:25;;;;;;;3.72;2.33;;;26.70;57.50;;;;;;4976272;28;20190;-54
2023/01/31 02:36:05;;;;;;;4.18;2.67;;;26.70;57.40;;;;;;4975437;28;20224;-51
2023/01/31 02:38:45;;;;;;;2.90;2.70;;;26.70;57.40;;;;;;4973347;28;20241;-51
2023/01/31 02:41:22;;;;;;;3.67;2.45;;;26.70;57.40;;;;;;4955556;28;20198;-53
2023/01/31 02:46:51;;;;;;;3.00;2.70;;;26.70;57.40;;;;;;4975698;28;20257;-52
2023/01/31 02:49:35;;;;;;;4.65;2.70;;;26.70;57.30;;;;;;4975473;28;20229;-51
2023/01/31 02:52:18;;;;;;;2.83;2.58;;;26.70;57.30;;;;;;4975074;28;20213;-52
2023/01/31 02:57:45;;;;;;;3.03;2.53;;;26.70;57.30;;;;;;4975532;28;20698;-54
2023/01/31 03:00:17;;;;;;;3.30;2.50;;;26.70;57.30;;;;;;4975332;28;20578;-55
2023/01/31 03:02:47;;;;;;;4.13;2.42;;;26.70;57.30;;;;;;4975244;28;20206;-53
2023/01/31 03:05:21;;;;;;;3.60;2.70;;;26.70;57.30;;;;;;4974731;28;20202;-51
2023/01/31 03:07:55;;;;;;;3.90;2.53;;;26.70;57.30;;;;;;4975171;28;20309;-54
2023/01/31 03:10:48;;;;;;;3.00;2.45;;;26.70;57.30;;;;;;4974247;28;20710;-53
2023/01/31 03:13:41;;;;;;;2.70;2.50;;;26.70;57.30;;;;;;4975077;28;20678;-53
2023/01/31 03:19:15;;;;;;;3.25;2.63;;;26.70;57.20;;;;;;4974766;28;20357;-53
2023/01/31 03:21:52;;;;;;;3.45;2.20;;;26.70;57.20;;;;;;4975239;28;20209;-54
2023/01/31 03:24:25;;;;;;;4.93;2.67;;;26.70;57.20;;;;;;4974999;28;20205;-52
2023/01/31 03:26:57;;;;;;;2.60;2.40;;;26.70;57.20;;;;;;4974219;28;20194;-55
2023/01/31 03:29:30;;;;;;;3.00;2.65;;;26.70;57.10;;;;;;4974988;28;20226;-55
2023/01/31 03:32:04;;;;;;;3.75;2.67;;;26.70;57.10;;;;;;4974117;28;20253;-54
2023/01/31 03:34:35;;;;;;;3.83;2.30;;;26.70;57.10;;;;;;4986127;28;20280;-52
2023/01/31 03:37:13;;;;;;;4.50;2.65;;;26.70;57.10;;;;;;4993249;28;20662;-53
2023/01/31 03:39:48;;;;;;;3.97;2.50;;;26.70;57.20;;;;;;4967190;28;20225;-55
2023/01/31 03:42:25;;;;;;;2.72;2.40;;;26.70;57.20;;;;;;4974671;28;20202;-55
2023/01/31 03:45:01;;;;;;;3.45;2.42;;;26.70;57.20;;;;;;4974631;28;20662;-53
2023/01/31 03:47:36;;;;;;;2.90;2.53;;;26.70;57.20;;;;;;4974909;28;20198;-54
2023/01/31 03:50:11;;;;;;;2.80;2.53;;;26.70;57.20;;;;;;4974157;28;20217;-54
2023/01/31 03:52:48;;;;;;;3.15;2.58;;;26.70;57.10;;;;;;4975060;28;20194;-52
2023/01/31 03:55:21;;;;;;;4.60;2.60;;;26.70;57.10;;;;;;4974354;28;20202;-53
2023/01/31 03:57:55;;;;;;;3.33;2.83;;;26.70;57.10;;;;;;4974501;28;20229;-52
2023/01/31 04:00:27;;;;;;;3.40;2.50;;;26.70;57.10;;;;;;4973087;28;20203;-52
2023/01/31 04:03:05;;;;;;;3.20;2.60;;;26.70;57.10;;;;;;4973726;28;20194;-53
2023/01/31 04:05:36;;;;;;;2.97;2.40;;;26.70;57.10;;;;;;4974089;28;20576;-54
2023/01/31 04:08:10;;;;;;;3.53;2.63;;;26.70;57.00;;;;;;4974274;28;20222;-52
2023/01/31 04:10:40;;;;;;;3.38;2.35;;;26.70;57.10;;;;;;4973195;28;20633;-54
2023/01/31 04:13:11;;;;;;;4.57;2.60;;;26.70;57.00;;;;;;4973057;28;20666;-52
2023/01/31 04:15:42;;;;;;;3.67;2.92;;;26.70;57.00;;;;;;4973935;28;20194;-53
2023/01/31 04:18:12;;;;;;;4.57;2.42;;;26.70;57.10;;;;;;4972696;28;20225;-54
2023/01/31 04:20:43;;;;;;;3.90;2.30;;;26.70;57.10;;;;;;4973287;28;20676;-53
2023/01/31 04:23:17;;;;;;;2.88;2.50;;;26.70;57.00;;;;;;4972890;28;20194;-53
2023/01/31 04:25:48;;;;;;;2.50;2.30;;;26.70;57.00;;;;;;4974247;28;20204;-50
2023/01/31 04:28:18;;;;;;;3.13;2.63;;;26.70;57.00;;;;;;4973449;28;20609;-55
2023/01/31 04:30:53;;;;;;;2.92;2.65;;;26.70;57.00;;;;;;4973031;28;20232;-53
2023/01/31 04:33:24;;;;;;;3.33;2.33;;;26.70;57.00;;;;;;4973174;28;20551;-53
2023/01/31 04:35:55;;;;;;;3.10;2.50;;;26.70;57.00;;;;;;4974052;28;20209;-55
2023/01/31 04:38:27;;;;;;;2.88;2.53;;;26.60;56.90;;;;;;4972985;28;20465;-53
2023/01/31 04:40:58;;;;;;;2.95;2.45;;;26.60;56.90;;;;;;4973296;28;20198;-51
2023/01/31 04:43:29;;;;;;;2.78;2.15;;;26.60;56.90;;;;;;4972679;28;20198;-53
2023/01/31 04:45:59;;;;;;;2.60;2.20;;;26.60;56.90;;;;;;4973385;28;20206;-55
2023/01/31 04:48:32;;;;;;;2.90;2.60;;;26.60;56.90;;;;;;4972986;28;20222;-54
2023/01/31 04:51:08;;;;;;;3.67;2.40;;;26.60;56.90;;;;;;4971952;28;20308;-54
2023/01/31 04:53:41;;;;;;;3.58;2.42;;;26.60;56.90;;;;;;4973240;28;20205;-54
2023/01/31 04:56:12;;;;;;;3.13;2.50;;;26.60;57.00;;;;;;4952410;28;20206;-55
2023/01/31 04:58:42;;;;;;;3.88;2.47;;;26.50;56.90;;;;;;4952900;28;20227;-53
2023/01/31 05:01:13;;;;;;;2.78;2.55;;;26.50;57.00;;;;;;4952965;28;20254;-55
2023/01/31 05:03:44;;;;;;;3.30;2.30;;;26.50;57.00;;;;;;4953431;28;20678;-51
2023/01/31 05:06:15;;;;;;;2.70;2.25;;;26.50;57.00;;;;;;4972691;28;20194;-52
2023/01/31 05:08:47;;;;;;;2.70;2.50;;;26.50;57.00;;;;;;4971976;28;20721;-55
2023/01/31 05:11:18;;;;;;;2.75;2.33;;;26.50;57.00;;;;;;4972215;28;20233;-53
2023/01/31 05:13:48;;;;;;;4.28;2.50;;;26.50;57.00;;;;;;4972255;28;20213;-55
2023/01/31 05:16:19;;;;;;;3.13;2.70;;;26.50;57.00;;;;;;4953473;28;20202;-54
2023/01/31 05:18:51;;;;;;;3.05;2.38;;;26.50;57.00;;;;;;4952605;28;20226;-55
2023/01/31 05:21:21;;;;;;;3.50;2.50;;;26.50;57.10;;;;;;4953917;28;20412;-54
2023/01/31 05:23:54;;;;;;;2.50;2.30;;;26.50;57.10;;;;;;4952995;28;20561;-52
2023/01/31 05:26:25;;;;;;;2.90;2.53;;;26.50;57.10;;;;;;4953317;28;20218;-53
2023/01/31 05:28:55;;;;;;;3.10;2.53;;;26.50;57.10;;;;;;4952656;28;20706;-55
2023/01/31 05:31:26;;;;;;;2.58;2.20;;;26.50;57.10;;;;;;4952801;28;20227;-53
2023/01/31 05:33:57;;;;;;;2.90;2.40;;;26.50;57.20;;;;;;4953385;28;20206;-54
2023/01/31 05:36:27;;;;;;;2.85;2.30;;;26.50;57.20;;;;;;4953971;28;20202;-53
2023/01/31 05:39:00;;;;;;;2.85;2.28;;;26.50;57.20;;;;;;4967251;28;20570;-54
2023/01/31 05:41:31;;;;;;;16.48;5.72;;;26.50;57.20;;;;;;4972861;28;20202;-49
2023/01/31 05:44:01;;;;;;;45.42;14.25;;;26.50;57.20;;;;;;4973000;28;20574;-51
2023/01/31 05:46:35;;;;;;;73.32;19.55;;;26.50;57.20;;;;;;4952789;28;20203;-52
2023/01/31 05:49:06;;;;;;;62.00;17.65;;;26.50;57.20;;;;;;4953192;28;20225;-52
2023/01/31 05:51:36;;;;;;;44.78;14.07;;;26.50;57.20;;;;;;4972236;28;20202;-53
2023/01/31 05:54:09;;;;;;;44.80;13.05;;;26.50;57.10;;;;;;4972170;28;20198;-49
2023/01/31 05:56:40;;;;;;;38.85;12.93;;;26.50;57.10;;;;;;4971625;28;20198;-54
2023/01/31 05:59:10;;;;;;;39.05;11.70;;;26.50;57.10;;;;;;4972158;28;20222;-49
2023/01/31 06:01:41;;;;;;;44.10;11.30;;;26.50;57.10;;;;;;4977412;28;20205;-50
2023/01/31 06:04:13;;;;;;;36.13;9.70;;;26.50;57.00;;;;;;4992200;28;20197;-52
2023/01/31 06:06:44;;;;;;;26.75;9.23;;;26.50;57.00;;;;;;4991817;28;20201;-53
2023/01/31 06:09:16;;;;;;;32.17;8.88;;;26.50;57.00;;;;;;4974977;28;20226;-50
2023/01/31 06:11:47;;;;;;;22.83;8.32;;;26.50;57.00;;;;;;4972630;28;20193;-49
2023/01/31 06:14:18;;;;;;;20.77;7.72;;;26.50;56.90;;;;;;4972509;28;20190;-50
2023/01/31 06:16:48;;;;;;;24.50;8.15;;;26.50;57.00;;;;;;4972962;28;20197;-50
2023/01/31 06:19:24;;;;;;;22.10;7.65;;;26.50;56.90;;;;;;4973017;28;20214;-52
2023/01/31 06:24:42;;;;;;;14.32;6.28;;;26.50;56.90;;;;;;4957562;28;20277;-53
2023/01/31 06:27:13;;;;;;;15.90;6.85;;;26.50;56.90;;;;;;4972481;28;20698;-50
2023/01/31 06:29:44;;;;;;;16.60;6.40;;;26.50;56.90;;;;;;4971892;28;20221;-52
2023/01/31 06:32:14;;;;;;;14.27;5.15;;;26.50;56.90;;;;;;4972330;28;20198;-50
2023/01/31 06:34:45;;;;;;;16.02;5.10;;;26.50;56.80;;;;;;4972618;28;20198;-53
2023/01/31 06:37:15;;;;;;;12.30;4.63;;;26.50;56.80;;;;;;4972465;28;20194;-53
2023/01/31 06:39:48;;;;;;;9.18;4.85;;;26.50;56.90;;;;;;4972738;28;20206;-54
2023/01/31 06:42:19;;;;;;;12.23;4.90;;;26.50;56.90;;;;;;4972726;28;20211;-52
2023/01/31 06:44:49;;;;;;;10.18;4.43;;;26.50;56.90;;;;;;4972393;28;20593;-51
2023/01/31 06:47:20;;;;;;;8.27;4.53;;;26.50;56.90;;;;;;4972310;28;20576;-53
2023/01/31 06:49:51;;;;;;;8.25;4.20;;;26.40;56.80;;;;;;4972193;28;20222;-52
2023/01/31 06:52:21;;;;;;;6.90;3.88;;;26.40;56.80;;;;;;4972334;28;20210;-50
2023/01/31 06:54:54;;;;;;;6.75;3.75;;;26.40;56.80;;;;;;4971908;28;20206;-52
2023/01/31 06:57:25;;;;;;;7.95;3.78;;;26.50;56.90;;;;;;4971745;28;20202;-49
2023/01/31 06:59:55;;;;;;;7.45;4.38;;;26.40;56.80;;;;;;4971635;28;20689;-51
2023/01/31 07:02:26;;;;;;;8.25;4.25;;;26.40;56.80;;;;;;4971620;28;20538;-50
2023/01/31 07:04:57;;;;;;;5.93;3.70;;;26.40;56.80;;;;;;4971742;28;20269;-50
2023/01/31 07:07:28;;;;;;;7.55;4.05;;;26.40;56.80;;;;;;4971652;28;20277;-49
2023/01/31 07:10:00;;;;;;;5.95;3.78;;;26.40;56.80;;;;;;4971631;28;20226;-48
2023/01/31 07:12:31;;;;;;;6.53;3.38;;;26.40;56.90;;;;;;4972123;28;20198;-49
2023/01/31 07:15:01;;;;;;;4.22;3.22;;;26.40;56.80;;;;;;4974410;28;20190;-51
2023/01/31 07:17:32;;;;;;;5.47;3.38;;;26.40;56.80;;;;;;4975829;28;20206;-51
2023/01/31 07:20:03;;;;;;;4.40;3.38;;;26.40;56.80;;;;;;4975333;28;20585;-50
2023/01/31 07:22:34;;;;;;;5.15;3.80;;;26.30;56.70;;;;;;4974987;28;20205;-50
2023/01/31 07:25:07;;;;;;;4.05;3.40;;;26.30;56.80;;;;;;4975570;28;20408;-49
2023/01/31 07:27:37;;;;;;;4.72;3.67;;;26.30;56.80;;;;;;4975793;28;20222;-50
2023/01/31 07:30:09;;;;;;;4.80;3.70;;;26.30;56.80;;;;;;4975262;28;20226;-50
2023/01/31 07:32:40;;;;;;;6.90;3.50;;;26.30;56.80;;;;;;4975808;28;20202;-49
2023/01/31 07:35:11;;;;;;;6.18;3.60;;;26.30;56.90;;;;;;4984358;28;20190;-50
2023/01/31 07:37:42;;;;;;;7.95;4.00;;;26.30;56.90;;;;;;4984872;28;20748;-51
2023/01/31 07:40:16;;;;;;;9.82;4.63;;;26.30;56.90;;;;;;4986509;28;20200;-51
2023/01/31 07:42:47;;;;;;;9.50;4.65;;;26.20;56.90;;;;;;4994084;28;20213;-52
2023/01/31 07:45:18;;;;;;;7.22;4.32;;;26.20;56.90;;;;;;4994639;28;20204;-51
2023/01/31 07:47:49;;;;;;;8.93;4.78;;;26.20;57.00;;;;;;4994436;28;20237;-54
2023/01/31 07:50:20;;;;;;;6.68;4.65;;;26.20;57.10;;;;;;4994376;28;20225;-53
2023/01/31 07:52:51;;;;;;;11.93;5.50;;;26.20;57.10;;;;;;4994754;28;20212;-53
2023/01/31 07:55:25;;;;;;;13.52;6.07;;;26.20;57.10;;;;;;4981282;28;20197;-52
2023/01/31 07:57:56;;;;;;;15.15;6.68;;;26.20;57.20;;;;;;4974600;28;20226;-54
2023/01/31 08:03:35;;;;;;;15.95;5.68;;;26.10;57.20;;;;;;4974360;28;20201;-52
2023/01/31 08:06:09;;;;;;;12.35;6.50;;;26.10;57.10;;;;;;4973429;28;20186;-50
2023/01/31 08:08:53;;;;;;;17.38;6.38;;;26.10;57.10;;;;;;4974376;28;20224;-53
2023/01/31 08:11:26;;;;;;;13.05;6.50;;;26.10;57.10;;;;;;4974076;28;20600;-51
2023/01/31 08:14:02;;;;;;;15.35;6.43;;;26.10;57.10;;;;;;4973494;28;20281;-54
2023/01/31 08:16:35;;;;;;;13.73;6.65;;;26.10;57.00;;;;;;4957436;28;20199;-54
2023/01/31 08:19:06;;;;;;;11.38;5.60;;;26.10;57.00;;;;;;4972793;28;20694;-53
2023/01/31 08:21:36;;;;;;;14.80;6.40;;;26.00;56.90;;;;;;4974049;28;20662;-53
2023/01/31 08:24:08;;;;;;;15.20;6.55;;;26.10;57.00;;;;;;4973878;28;20228;-54
2023/01/31 08:26:40;;;;;;;13.38;6.32;;;26.00;56.90;;;;;;4972661;28;20221;-50
2023/01/31 08:29:11;;;;;;;15.65;5.90;;;26.00;56.90;;;;;;4972966;28;20221;-50
2023/01/31 08:31:43;;;;;;;10.20;5.93;;;26.00;56.80;;;;;;4974210;28;20221;-50
2023/01/31 08:34:14;;;;;;;13.10;6.20;;;26.00;56.80;;;;;;4973287;28;20201;-50
2023/01/31 08:36:46;;;;;;;15.57;6.30;;;26.00;56.80;;;;;;4973895;28;20202;-51
2023/01/31 08:39:16;;;;;;;12.15;5.85;;;26.00;56.80;;;;;;4972723;28;20222;-52
2023/01/31 08:41:49;;;;;;;12.13;6.47;;;25.90;56.70;;;;;;4973860;28;20194;-52
2023/01/31 08:44:20;;;;;;;13.95;6.30;;;26.00;56.80;;;;;;4972991;28;20198;-53
2023/01/31 08:46:50;;;;;;;11.13;5.15;;;25.90;56.60;;;;;;4973031;28;20190;-52
2023/01/31 08:49:21;;;;;;;10.27;5.40;;;25.90;56.60;;;;;;4973147;28;20233;-49
2023/01/31 08:51:52;;;;;;;12.82;5.57;;;25.90;56.70;;;;;;4973432;28;20230;-54
2023/01/31 08:54:22;;;;;;;12.57;6.22;;;25.90;56.60;;;;;;4974122;28;20202;-54
2023/01/31 08:56:55;;;;;;;11.27;5.50;;;25.90;56.60;;;;;;4973062;28;20202;-53
2023/01/31 08:59:26;;;;;;;9.15;5.80;;;25.90;56.60;;;;;;4973400;28;20218;-51
2023/01/31 09:01:56;;;;;;;13.40;5.80;;;25.90;56.60;;;;;;4972885;28;20194;-52
2023/01/31 09:04:27;;;;;;;9.95;5.10;;;25.90;56.60;;;;;;4972369;28;20591;-53
2023/01/31 09:06:58;;;;;;;14.77;6.13;;;25.80;56.50;;;;;;4973431;28;20205;-54
2023/01/31 09:09:28;;;;;;;12.85;5.82;;;25.80;56.50;;;;;;4973851;28;20386;-54
2023/01/31 09:12:01;;;;;;;9.77;5.47;;;25.80;56.50;;;;;;4980883;28;20213;-50
2023/01/31 09:14:32;;;;;;;14.18;5.65;;;25.80;56.50;;;;;;4981543;28;20194;-52
2023/01/31 09:17:06;;;;;;;10.40;5.18;;;25.80;56.50;;;;;;4977920;28;20194;-52
2023/01/31 09:19:37;;;;;;;12.40;5.47;;;25.80;56.60;;;;;;4973211;28;20256;-52
2023/01/31 09:22:08;;;;;;;11.38;5.40;;;25.80;56.60;;;;;;4973333;28;20568;-53
2023/01/31 09:24:38;;;;;;;9.10;5.28;;;25.80;56.60;;;;;;4972850;28;20198;-52
2023/01/31 09:27:11;;;;;;;8.82;4.78;;;25.80;56.70;;;;;;4972580;28;20194;-54
2023/01/31 09:29:41;;;;;;;10.35;4.97;;;25.70;56.60;;;;;;4972540;28;20209;-54
2023/01/31 09:32:12;;;;;;;12.40;5.47;;;25.70;56.60;;;;;;4971897;28;20226;-50
2023/01/31 09:34:43;;;;;;;8.43;5.22;;;25.70;56.70;;;;;;4971792;28;20229;-52
2023/01/31 09:37:13;;;;;;;10.70;5.50;;;25.70;56.70;;;;;;4971759;28;20666;-53
2023/01/31 09:39:44;;;;;;;8.48;5.28;;;25.70;57.30;;;;;;4954929;28;20205;-54
2023/01/31 09:42:24;;;;;;;8.15;4.63;;;25.70;56.70;;;;;;4971800;28;20202;-54
2023/01/31 09:45:01;;;;;;;8.27;4.88;;;25.70;56.70;;;;;;4972787;28;20198;-53
2023/01/31 09:47:39;;;;;;;7.40;4.68;;;25.70;56.70;;;;;;4972055;28;20194;-52
2023/01/31 09:50:18;;;;;;;6.68;4.05;;;25.70;56.70;;;;;;4972228;28;20201;-53
2023/01/31 09:52:49;;;;;;;8.43;4.82;;;25.70;56.70;;;;;;4972775;28;20575;-52
2023/01/31 09:55:23;;;;;;;9.52;4.93;;;25.70;56.70;;;;;;4973382;28;20202;-52
2023/01/31 09:58:04;;;;;;;6.78;4.75;;;25.60;56.60;;;;;;4972516;28;20226;-52
2023/01/31 10:00:42;;;;;;;9.20;4.45;;;25.60;56.70;;;;;;4972228;28;20257;-50
2023/01/31 10:03:38;;;;;;;9.25;4.65;;;25.60;56.60;;;;;;4970376;28;20186;-50
2023/01/31 10:06:17;;;;;;;7.50;4.13;;;25.60;56.70;;;;;;4977710;28;20689;-53
2023/01/31 10:08:52;;;;;;;8.20;4.63;;;25.60;57.30;;;;;;4978594;28;20633;-53
2023/01/31 10:11:32;;;;;;;8.00;4.40;;;25.60;56.80;;;;;;4971410;28;20311;-53
2023/01/31 10:14:15;;;;;;;7.45;4.38;;;25.50;56.70;;;;;;4972266;28;20198;-53
2023/01/31 10:16:52;;;;;;;7.57;4.68;;;25.50;56.70;;;;;;4972192;28;20197;-54
2023/01/31 10:19:28;;;;;;;8.85;4.53;;;25.50;56.70;;;;;;4972435;28;20213;-53
2023/01/31 10:22:03;;;;;;;6.70;4.20;;;25.50;56.70;;;;;;4972299;28;20202;-53
2023/01/31 10:24:38;;;;;;;6.32;3.90;;;25.50;56.70;;;;;;4972395;28;20205;-54
2023/01/31 10:27:14;;;;;;;6.95;4.57;;;25.50;57.00;;;;;;4972186;28;20189;-52
2023/01/31 10:29:52;;;;;;;9.65;4.32;;;25.50;56.70;;;;;;4972342;28;20198;-54
2023/01/31 10:32:29;;;;;;;8.15;4.18;;;25.50;56.70;;;;;;4972111;28;20236;-53
2023/01/31 10:35:04;;;;;;;5.55;4.00;;;25.50;56.70;;;;;;4972630;28;20213;-50
2023/01/31 10:37:40;;;;;;;7.93;4.07;;;25.40;56.60;;;;;;4972489;28;20229;-51
2023/01/31 10:40:17;;;;;;;5.15;3.70;;;25.40;56.60;;;;;;4972474;28;20193;-55
2023/01/31 10:42:53;;;;;;;5.32;4.05;;;25.40;56.60;;;;;;4971632;28;20579;-55
2023/01/31 10:45:31;;;;;;;5.30;3.67;;;25.40;56.70;;;;;;4971565;28;20202;-53
2023/01/31 10:48:19;;;;;;;5.35;3.38;;;25.40;56.70;;;;;;4971015;28;20256;-55
2023/01/31 10:51:04;;;;;;;5.95;3.78;;;25.40;56.80;;;;;;4974222;28;20217;-54
2023/01/31 10:54:14;;;;;;;6.07;4.05;;;25.30;56.70;;;;;;4955650;28;20586;-53
2023/01/31 10:56:47;;;;;;;5.22;3.65;;;25.30;56.80;;;;;;4962480;28;20190;-54
2023/01/31 10:59:24;;;;;;;6.53;3.70;;;25.30;56.70;;;;;;4975128;28;20441;-52
2023/01/31 11:01:57;;;;;;;5.28;3.85;;;25.30;56.70;;;;;;4975318;28;20794;-54
2023/01/31 11:04:31;;;;;;;6.47;3.90;;;25.30;56.60;;;;;;4975697;28;20261;-52
2023/01/31 11:07:03;;;;;;;4.07;3.10;;;25.30;56.60;;;;;;4975517;28;20193;-54
2023/01/31 11:09:36;;;;;;;8.20;3.97;;;25.30;56.70;;;;;;4974640;28;20241;-54
2023/01/31 11:12:08;;;;;;;5.78;3.78;;;25.30;56.70;;;;;;4974841;28;20233;-54
2023/01/31 11:14:39;;;;;;;5.05;3.35;;;25.20;56.70;;;;;;4974382;28;20202;-53
2023/01/31 11:17:19;;;;;;;4.57;3.10;;;25.20;56.70;;;;;;4975293;28;20197;-54
2023/01/31 11:19:51;;;;;;;5.00;3.45;;;25.20;56.70;;;;;;4974592;28;20205;-54
2023/01/31 11:22:26;;;;;;;4.85;3.35;;;25.20;56.80;;;;;;4974831;28;20202;-54
2023/01/31 11:24:58;;;;;;;4.85;3.30;;;25.10;56.80;;;;;;4974259;28;20198;-53
2023/01/31 11:27:32;;;;;;;4.43;3.35;;;25.20;56.90;;;;;;4972378;28;20652;-54
2023/01/31 11:30:03;;;;;;;4.22;3.08;;;25.20;56.90;;;;;;4976278;28;20204;-55
2023/01/31 11:32:38;;;;;;;4.18;3.30;;;25.20;56.90;;;;;;4973562;28;20261;-54
2023/01/31 11:35:24;;;;;;;4.25;3.08;;;25.10;56.90;;;;;;4974097;28;20221;-54
2023/01/31 11:37:56;;;;;;;3.35;2.95;;;25.10;56.80;;;;;;4975136;28;20225;-54
2023/01/31 11:40:32;;;;;;;4.93;3.42;;;25.10;56.80;;;;;;4974703;28;20302;-54
2023/01/31 11:43:03;;;;;;;4.47;3.20;;;25.10;56.80;;;;;;4973700;28;20263;-54
2023/01/31 11:45:35;;;;;;;3.10;2.80;;;25.10;56.80;;;;;;4955146;28;20211;-54
2023/01/31 11:48:19;;;;;;;3.78;3.38;;;25.10;56.90;;;;;;4955261;28;20255;-54
2023/01/31 11:50:55;;;;;;;5.70;3.17;;;25.10;56.90;;;;;;4955497;28;20221;-54
2023/01/31 11:53:29;;;;;;;3.42;2.83;;;25.10;56.90;;;;;;4954758;28;20216;-53
2023/01/31 11:56:11;;;;;;;3.30;2.67;;;25.10;56.90;;;;;;4955242;28;20655;-53
2023/01/31 11:58:43;;;;;;;5.30;2.95;;;25.00;56.90;;;;;;4955725;28;20226;-55
2023/01/31 12:01:18;;;;;;;4.68;2.92;;;25.00;56.90;;;;;;4955061;28;20670;-53
2023/01/31 12:03:53;;;;;;;5.13;3.00;;;25.00;56.90;;;;;;4955165;28;20198;-51
2023/01/31 12:06:34;;;;;;;3.65;2.83;;;25.00;57.00;;;;;;4956058;28;20302;-51
2023/01/31 12:09:07;;;;;;;3.97;2.85;;;25.00;57.00;;;;;;4972092;28;20221;-54
2023/01/31 12:11:39;;;;;;;3.70;3.13;;;25.00;57.00;;;;;;4974128;28;20688;-53
2023/01/31 12:14:16;;;;;;;4.55;3.40;;;25.00;57.00;;;;;;4974729;28;20209;-54
2023/01/31 12:16:49;;;;;;;5.00;3.00;;;25.00;57.00;;;;;;4974164;28;20198;-53
2023/01/31 12:19:33;;;;;;;5.50;3.22;;;25.00;57.00;;;;;;4980827;28;20213;-55
2023/01/31 12:22:10;;;;;;;4.10;3.08;;;25.00;57.00;;;;;;4982466;28;20193;-53
2023/01/31 12:24:55;;;;;;;2.97;2.63;;;25.00;56.90;;;;;;4981653;28;20198;-52
2023/01/31 12:27:39;;;;;;;3.55;2.90;;;24.90;56.90;;;;;;4982700;28;20288;-54
2023/01/31 12:30:33;;;;;;;4.15;2.80;;;24.90;56.90;;;;;;4976353;28;20198;-55
2023/01/31 12:33:17;;;;;;;3.03;2.72;;;24.90;56.90;;;;;;4974361;28;20232;-54
2023/01/31 12:36:22;;;;;;;3.60;3.08;;;24.90;56.90;;;;;;4974301;28;20202;-53
2023/01/31 12:39:04;;;;;;;3.90;2.78;;;24.90;56.90;;;;;;4973611;28;20214;-52
2023/01/31 12:41:38;;;;;;;2.90;2.70;;;24.90;56.90;;;;;;4974093;28;20334;-53
2023/01/31 12:44:42;;;;;;;3.17;2.63;;;24.90;56.90;;;;;;4974294;28;20208;-54
2023/01/31 12:47:36;;;;;;;3.85;2.92;;;24.90;56.90;;;;;;4967315;28;20198;-54
2023/01/31 12:50:25;;;;;;;3.42;2.90;;;24.90;56.90;;;;;;4969005;28;20257;-51
2023/01/31 12:53:19;;;;;;;3.05;2.78;;;24.90;56.90;;;;;;4974141;28;20233;-51
2023/01/31 12:56:03;;;;;;;4.03;2.95;;;24.90;56.90;;;;;;4974222;28;20667;-54
2023/01/31 12:58:45;;;;;;;3.08;2.78;;;24.90;56.90;;;;;;4974588;28;20342;-54
2023/01/31 13:01:21;;;;;;;4.15;3.03;;;24.80;56.80;;;;;;4973299;28;20194;-55
2023/01/31 13:04:04;;;;;;;3.30;3.00;;;24.80;56.80;;;;;;4973246;28;20603;-53
2023/01/31 13:06:39;;;;;;;2.88;2.58;;;24.80;56.80;;;;;;4973897;28;20224;-52
2023/01/31 13:09:19;;;;;;;3.92;2.83;;;24.80;56.80;;;;;;4973098;28;20225;-55
2023/01/31 13:11:53;;;;;;;3.25;2.95;;;24.80;56.90;;;;;;4972770;28;20256;-53
2023/01/31 13:14:27;;;;;;;3.17;2.83;;;24.70;56.80;;;;;;4973567;28;20680;-54
2023/01/31 13:16:59;;;;;;;3.03;2.78;;;24.70;56.80;;;;;;4973310;28;20596;-55
2023/01/31 13:19:35;;;;;;;2.80;2.60;;;24.70;56.90;;;;;;4973011;28;20233;-55
2023/01/31 13:22:13;;;;;;;3.35;2.75;;;24.70;56.90;;;;;;4973161;28;20238;-54
2023/01/31 13:24:49;;;;;;;3.22;2.90;;;24.70;56.90;;;;;;4973166;28;20564;-54
2023/01/31 13:27:24;;;;;;;3.33;2.80;;;24.70;56.90;;;;;;4973082;28;20610;-54
2023/01/31 13:30:01;;;;;;;4.85;2.92;;;24.70;56.90;;;;;;4973353;28;20197;-54
2023/01/31 13:32:41;;;;;;;2.95;2.70;;;24.70;56.80;;;;;;4973321;28;20221;-55
2023/01/31 13:35:22;;;;;;;3.05;2.78;;;24.70;56.80;;;;;;4973163;28;20744;-54
2023/01/31 13:37:55;;;;;;;2.97;2.78;;;24.70;56.80;;;;;;4972253;28;20222;-53